createdAt,value
2022-12-24T00:01:09.657Z,99136.03
2022-12-24T00:05:11.437Z,99139.84
2022-12-24T00:09:13.220Z,99141.47
2022-12-24T00:13:16.228Z,99137.59
2022-12-24T00:17:17.921Z,99144.19
2022-12-24T00:21:19.731Z,99149.38
2022-12-24T00:25:21.517Z,99155.72
2022-12-24T00:29:23.167Z,99170.03
2022-12-24T00:33:24.973Z,99176.38
2022-12-24T00:37:26.510Z,99176.38
2022-12-24T00:41:29.511Z,99180.53
2022-12-24T00:45:31.197Z,99183.81
2022-12-24T00:49:32.787Z,99181.63
2022-12-24T00:53:34.380Z,99180.06
2022-12-24T00:57:36.025Z,99178.94
2022-12-24T01:01:37.787Z,99179.81
2022-12-24T01:05:39.451Z,99185.59
2022-12-24T01:09:41.001Z,99194.19
2022-12-24T01:13:45.356Z,99193.13
2022-12-24T01:17:47.040Z,99200.00
2022-12-24T01:21:48.669Z,99207.72
2022-12-24T01:25:50.222Z,99214.91
2022-12-24T01:29:51.766Z,99227.63
2022-12-24T01:33:53.404Z,99227.28
2022-12-24T01:37:55.135Z,99233.63
2022-12-24T01:42:15.427Z,99231.41
2022-12-24T01:46:32.211Z,99248.53
2022-12-24T01:50:33.929Z,99246.59
2022-12-24T01:54:50.097Z,99248.50
2022-12-24T01:58:57.729Z,99265.78
2022-12-24T02:03:00.081Z,99260.75
2022-12-24T02:07:02.394Z,99255.44
2022-12-24T02:11:10.041Z,99269.66
2022-12-24T02:15:14.217Z,99296.03
2022-12-24T02:19:52.980Z,99293.16
2022-12-24T02:24:32.681Z,99302.00
2022-12-24T02:29:07.721Z,99306.47
2022-12-24T02:33:26.091Z,99309.28
2022-12-24T02:37:39.357Z,99313.16
2022-12-24T02:42:06.547Z,99320.66
2022-12-24T02:46:14.113Z,99315.47
2022-12-24T02:50:17.008Z,99301.44
2022-12-24T02:54:18.563Z,99318.25
2022-12-24T02:58:52.452Z,99325.19
2022-12-24T03:03:25.963Z,99330.97
2022-12-24T03:08:05.998Z,99330.97
2022-12-24T03:12:15.681Z,99332.69
2022-12-24T03:16:23.615Z,99355.25
2022-12-24T03:20:30.555Z,99355.25
2022-12-24T03:24:32.096Z,99354.16
2022-12-24T03:28:33.923Z,99351.66
2022-12-24T03:32:35.464Z,99349.97
2022-12-24T03:36:37.423Z,99350.28
2022-12-24T03:40:39.001Z,99361.63
2022-12-24T03:44:40.660Z,99366.88
2022-12-24T03:48:42.203Z,99358.91
2022-12-24T03:52:44.171Z,99369.94
2022-12-24T03:56:45.746Z,99368.53
2022-12-24T04:00:47.311Z,99372.91
2022-12-24T04:04:48.897Z,99371.50
2022-12-24T04:08:50.442Z,99366.88
2022-12-24T04:12:51.983Z,99368.28
2022-12-24T04:16:53.652Z,99379.81
2022-12-24T04:20:55.480Z,99382.88
2022-12-24T04:24:57.174Z,99385.94
2022-12-24T04:28:58.738Z,99401.72
2022-12-24T04:33:00.349Z,99402.22
2022-12-24T04:37:02.239Z,99405.56
2022-12-24T04:41:14.744Z,99403.88
2022-12-24T04:45:21.275Z,99407.69
2022-12-24T04:49:22.835Z,99399.38
2022-12-24T04:53:24.564Z,99397.13
2022-12-24T04:57:26.133Z,99410.91
2022-12-24T05:01:30.778Z,99414.19
2022-12-24T05:05:32.461Z,99408.31
2022-12-24T05:09:34.171Z,99415.78
2022-12-24T05:13:44.057Z,99423.00
2022-12-24T05:17:47.883Z,99416.97
2022-12-24T05:22:09.544Z,99418.94
2022-12-24T05:26:22.122Z,99425.88
2022-12-24T05:30:23.628Z,99441.06
2022-12-24T05:34:25.583Z,99432.50
2022-12-24T05:38:27.397Z,99430.56
2022-12-24T05:42:28.968Z,99429.50
2022-12-24T05:46:30.561Z,99437.19
2022-12-24T05:50:32.119Z,99449.31
2022-12-24T05:54:39.973Z,99450.72
2022-12-24T05:58:43.105Z,99447.41
2022-12-24T06:02:44.736Z,99451.50
2022-12-24T06:06:46.352Z,99451.75
2022-12-24T06:10:48.061Z,99455.91
2022-12-24T06:14:49.619Z,99454.84
2022-12-24T06:18:51.616Z,99459.31
2022-12-24T06:22:53.130Z,99464.03
2022-12-24T06:26:54.753Z,99463.47
2022-12-24T06:31:02.327Z,99457.91
2022-12-24T06:35:04.773Z,99464.50
2022-12-24T06:39:06.459Z,99469.44
2022-12-24T06:43:08.135Z,99466.16
2022-12-24T06:47:09.731Z,99473.63
2022-12-24T06:51:12.342Z,99466.13
2022-12-24T06:55:14.043Z,99473.56
2022-12-24T06:59:15.759Z,99476.25
2022-12-24T07:03:17.412Z,99501.38
2022-12-24T07:07:19.154Z,99497.59
2022-12-24T07:11:22.078Z,99503.13
2022-12-24T07:15:23.656Z,99496.56
2022-12-24T07:19:25.353Z,99500.97
2022-12-24T07:23:27.017Z,99502.63
2022-12-24T07:27:28.726Z,99515.78
2022-12-24T07:31:30.274Z,99519.66
2022-12-24T07:35:32.035Z,99525.47
2022-12-24T07:39:33.725Z,99528.78
2022-12-24T07:43:35.303Z,99537.03
2022-12-24T07:47:37.116Z,99547.53
2022-12-24T07:51:39.048Z,99546.38
2022-12-24T07:55:40.641Z,99553.88
2022-12-24T07:59:43.373Z,99558.28
2022-12-24T08:03:45.589Z,99566.63
2022-12-24T08:07:47.330Z,99570.78
2022-12-24T08:11:52.367Z,99577.44
2022-12-24T08:15:54.401Z,99582.72
2022-12-24T08:19:55.986Z,99584.38
2022-12-24T08:23:57.593Z,99584.38
2022-12-24T08:27:59.317Z,99586.03
2022-12-24T08:32:01.029Z,99588.25
2022-12-24T08:36:03.061Z,99589.13
2022-12-24T08:40:05.291Z,99592.44
2022-12-24T08:44:06.832Z,99592.44
2022-12-24T08:48:10.079Z,99593.06
2022-12-24T08:52:11.699Z,99600.34
2022-12-24T08:56:14.410Z,99601.81
2022-12-24T09:00:16.443Z,99603.53
2022-12-24T09:04:18.113Z,99609.34
2022-12-24T09:08:20.586Z,99607.38
2022-12-24T09:12:22.226Z,99623.63
2022-12-24T09:16:23.988Z,99629.97
2022-12-24T09:20:25.731Z,99633.81
2022-12-24T09:24:27.436Z,99631.13
2022-12-24T09:28:29.040Z,99630.38
2022-12-24T09:32:30.628Z,99640.38
2022-12-24T09:36:34.189Z,99647.63
2022-12-24T09:40:40.061Z,99655.94
2022-12-24T09:44:49.427Z,99660.72
2022-12-24T09:48:58.832Z,99665.78
2022-12-24T09:53:04.574Z,99674.44
2022-12-24T09:57:15.647Z,99673.38
2022-12-24T10:01:18.802Z,99675.06
2022-12-24T10:05:36.611Z,99688.47
2022-12-24T10:09:50.288Z,99699.34
2022-12-24T10:13:59.757Z,99709.66
2022-12-24T10:18:56.341Z,99705.03
2022-12-24T10:23:26.645Z,99703.19
2022-12-24T10:27:37.251Z,99713.94
2022-12-24T10:31:50.179Z,99694.88
2022-12-24T10:35:55.074Z,99687.69
2022-12-24T10:39:58.471Z,99682.97
2022-12-24T10:44:00.180Z,99686.56
2022-12-24T10:48:08.164Z,99690.16
2022-12-24T10:52:15.551Z,99699.91
2022-12-24T10:56:19.456Z,99703.53
2022-12-24T11:00:29.954Z,99696.13
2022-12-24T11:04:49.722Z,99702.59
2022-12-24T11:08:51.276Z,99708.13
2022-12-24T11:13:27.385Z,99709.16
2022-12-24T11:17:23.669Z,99713.56
2022-12-24T11:21:43.630Z,99715.78
2022-12-24T11:25:51.039Z,99707.22
2022-12-24T11:29:52.656Z,99709.94
2022-12-24T11:33:54.200Z,99704.91
2022-12-24T11:38:01.695Z,99710.09
2022-12-24T11:42:03.830Z,99692.97
2022-12-24T11:46:16.518Z,99704.31
2022-12-24T11:50:32.583Z,99698.22
2022-12-24T11:54:43.161Z,99691.31
2022-12-24T11:58:57.106Z,99690.56
2022-12-24T12:03:02.521Z,99700.75
2022-12-24T12:07:15.515Z,99696.56
2022-12-24T12:11:17.418Z,99691.22
2022-12-24T12:15:23.486Z,99700.56
2022-12-24T12:19:26.994Z,99693.41
2022-12-24T12:23:31.512Z,99694.28
2022-12-24T12:27:39.983Z,99695.16
2022-12-24T12:31:53.273Z,99696.81
2022-12-24T12:35:56.260Z,99703.44
2022-12-24T12:39:57.907Z,99691.22
2022-12-24T12:44:24.079Z,99709.38
2022-12-24T12:48:44.350Z,99703.03
2022-12-24T12:53:15.206Z,99714.47
2022-12-24T12:57:21.157Z,99721.41
2022-12-24T13:01:50.205Z,99723.84
2022-12-24T13:06:10.239Z,99727.22
2022-12-24T13:10:40.589Z,99722.22
2022-12-24T13:15:11.834Z,99730.19
2022-12-24T13:19:52.359Z,99718.69
2022-12-24T13:24:06.677Z,99736.84
2022-12-24T13:28:23.375Z,99743.75
2022-12-24T13:32:24.887Z,99741.13
2022-12-24T13:37:06.007Z,99729.00
2022-12-24T13:41:38.783Z,99732.75
2022-12-24T13:45:41.726Z,99726.78
2022-12-24T13:49:46.941Z,99732.50
2022-12-24T13:53:49.636Z,99735.50
2022-12-24T13:58:04.149Z,99742.19
2022-12-24T14:02:12.309Z,99744.72
2022-12-24T14:06:23.841Z,99738.50
2022-12-24T14:10:30.364Z,99743.25
2022-12-24T14:14:33.128Z,99743.28
2022-12-24T14:18:39.256Z,99744.44
2022-12-24T14:22:45.767Z,99749.63
2022-12-24T14:26:51.494Z,99755.09
2022-12-24T14:31:01.513Z,99748.09
2022-12-24T14:35:27.711Z,99750.19
2022-12-24T14:39:39.726Z,99754.84
2022-12-24T14:43:52.565Z,99747.59
2022-12-24T14:48:07.453Z,99752.22
2022-12-24T14:52:54.632Z,99760.16
2022-12-24T14:56:47.642Z,99760.94
2022-12-24T15:00:49.711Z,99760.81
2022-12-24T15:05:11.548Z,99761.00
2022-12-24T15:09:24.933Z,99763.19
2022-12-24T15:13:50.066Z,99765.88
2022-12-24T15:17:52.455Z,99777.38
2022-12-24T15:21:55.794Z,99792.53
2022-12-24T15:26:26.845Z,99800.41
2022-12-24T15:30:30.033Z,99803.94
2022-12-24T15:34:48.591Z,99811.00
2022-12-24T15:38:53.805Z,99805.09
2022-12-24T15:42:55.720Z,99797.31
2022-12-24T15:47:00.009Z,99801.94
2022-12-24T15:51:04.847Z,99811.53
2022-12-24T15:55:25.676Z,99806.53
2022-12-24T15:59:38.167Z,99804.34
2022-12-24T16:03:54.177Z,99816.47
2022-12-24T16:08:09.775Z,99820.63
2022-12-24T16:12:15.934Z,99831.06
2022-12-24T16:16:31.524Z,99834.09
2022-12-24T16:20:33.358Z,99832.44
2022-12-24T16:24:35.805Z,99831.84
2022-12-24T16:28:37.465Z,99827.44
2022-12-24T16:32:41.418Z,99833.19
2022-12-24T16:36:45.024Z,99829.59
2022-12-24T16:40:47.135Z,99828.50
2022-12-24T16:44:52.054Z,99826.25
2022-12-24T16:48:53.550Z,99828.09
2022-12-24T16:52:55.179Z,99823.06
2022-12-24T16:56:56.755Z,99821.94
2022-12-24T17:00:59.827Z,99833.69
2022-12-24T17:05:01.370Z,99845.47
2022-12-24T17:09:03.008Z,99836.38
2022-12-24T17:13:04.931Z,99829.78
2022-12-24T17:17:06.610Z,99833.97
2022-12-24T17:21:08.285Z,99834.78
2022-12-24T17:25:13.047Z,99831.44
2022-12-24T17:29:14.615Z,99840.81
2022-12-24T17:33:16.237Z,99852.16
2022-12-24T17:37:17.906Z,99854.41
2022-12-24T17:41:20.638Z,99857.50
2022-12-24T17:45:22.167Z,99870.53
2022-12-24T17:49:23.793Z,99868.69
2022-12-24T17:53:25.460Z,99866.03
2022-12-24T17:57:27.616Z,99864.44
2022-12-24T18:01:32.224Z,99866.69
2022-12-24T18:05:35.478Z,99859.84
2022-12-24T18:09:37.146Z,99864.84
2022-12-24T18:13:39.729Z,99861.25
2022-12-24T18:17:41.257Z,99858.22
2022-12-24T18:21:43.099Z,99856.81
2022-12-24T18:25:44.640Z,99846.38
2022-12-24T18:29:46.228Z,99845.63
2022-12-24T18:33:49.624Z,99844.25
2022-12-24T18:37:51.448Z,99848.72
2022-12-24T18:41:53.161Z,99845.34
2022-12-24T18:45:54.733Z,99851.06
2022-12-24T18:49:56.287Z,99853.13
2022-12-24T18:53:57.933Z,99851.97
2022-12-24T18:57:59.489Z,99862.19
2022-12-24T19:02:01.147Z,99857.16
2022-12-24T19:06:02.972Z,99845.81
2022-12-24T19:10:04.935Z,99850.75
2022-12-24T19:14:10.329Z,99866.69
2022-12-24T19:18:11.892Z,99874.13
2022-12-24T19:22:13.426Z,99880.75
2022-12-24T19:26:16.837Z,99888.25
2022-12-24T19:30:18.428Z,99894.13
2022-12-24T19:34:20.058Z,99899.13
2022-12-24T19:38:21.726Z,99904.66
2022-12-24T19:42:23.570Z,99905.47
2022-12-24T19:46:33.003Z,99916.22
2022-12-24T19:50:34.685Z,99914.06
2022-12-24T19:54:36.340Z,99927.34
2022-12-24T19:58:37.908Z,99935.72
2022-12-24T20:02:39.939Z,99936.88
2022-12-24T20:06:41.609Z,99913.50
2022-12-24T20:10:44.202Z,99913.50
2022-12-24T20:14:45.842Z,99932.19
2022-12-24T20:18:58.852Z,99947.19
2022-12-24T20:23:00.335Z,99932.19
2022-12-24T20:27:01.962Z,99919.25
2022-12-24T20:31:12.918Z,99913.16
2022-12-24T20:35:14.596Z,99902.03
2022-12-24T20:39:17.087Z,99890.41
2022-12-24T20:43:24.127Z,99914.66
2022-12-24T20:47:26.921Z,99907.47
2022-12-24T20:51:29.050Z,99913.47
2022-12-24T20:55:32.615Z,99914.56
2022-12-24T20:59:34.185Z,99918.66
2022-12-24T21:03:36.083Z,99915.06
2022-12-24T21:07:43.006Z,99931.63
2022-12-24T21:11:50.206Z,99925.59
2022-12-24T21:15:57.908Z,99925.94
2022-12-24T21:20:00.774Z,99930.34
2022-12-24T21:24:02.495Z,99929.53
2022-12-24T21:28:04.179Z,99926.75
2022-12-24T21:32:05.784Z,99911.66
2022-12-24T21:36:07.809Z,99911.91
2022-12-24T21:40:10.647Z,99893.09
2022-12-24T21:44:12.103Z,99889.56
2022-12-24T21:48:32.301Z,99886.81
2022-12-24T21:52:33.959Z,99888.41
2022-12-24T21:56:55.975Z,99883.66
2022-12-24T22:00:57.655Z,99886.00
2022-12-24T22:04:59.425Z,99880.88
2022-12-24T22:09:20.304Z,99872.84
2022-12-24T22:13:22.649Z,99860.34
2022-12-24T22:17:45.917Z,99868.66
2022-12-24T22:21:47.651Z,99880.41
2022-12-24T22:25:49.266Z,99888.69
2022-12-24T22:29:50.870Z,99889.66
2022-12-24T22:33:54.193Z,99895.56
2022-12-24T22:38:00.095Z,99883.63
2022-12-24T22:42:02.291Z,99884.09
2022-12-24T22:46:12.282Z,99914.41
2022-12-24T22:50:13.987Z,99916.19
2022-12-24T22:54:16.086Z,99906.31
2022-12-24T22:58:17.709Z,99898.81
2022-12-24T23:02:25.684Z,99913.25
2022-12-24T23:06:29.637Z,99910.38
2022-12-24T23:10:31.538Z,99916.31
2022-12-24T23:14:51.969Z,99915.31
2022-12-24T23:18:54.229Z,99910.47
2022-12-24T23:22:56.287Z,99898.44
2022-12-24T23:27:01.832Z,99900.19
2022-12-24T23:31:15.439Z,99897.53
2022-12-24T23:35:18.184Z,99905.81
2022-12-24T23:39:19.862Z,99906.91
2022-12-24T23:43:21.498Z,99903.28
2022-12-24T23:47:23.007Z,99897.03
2022-12-24T23:51:27.777Z,99904.56
2022-12-24T23:55:29.577Z,99911.47
2022-12-24T23:59:33.306Z,99896.59
